Time,TemperatureF,DewpointF,PressureIn,WindDirection,WindDirectionDegrees,WindSpeedMPH,WindSpeedGustMPH,Humidity,HourlyPrecipIn,Conditions,Clouds,dailyrainin,SoftwareType,DateUTC
2013-06-28 00:02:00,56.8,56.2,29.65,NE,45,8.9,-999.0,98,-99.99,,,0.00,Acu-Link.com,2013-06-28 04:02:00,
2013-06-28 00:17:00,56.8,56.2,29.64,ESE,112,8.9,-999.0,98,-99.99,,,0.00,Acu-Link.com,2013-06-28 04:17:00,
2013-06-28 00:32:00,56.8,56.2,29.64,NE,45,7.3,-999.0,98,-99.99,,,0.00,Acu-Link.com,2013-06-28 04:32:00,
2013-06-28 00:48:00,56.8,56.2,29.64,ENE,67,7.8,-999.0,98,-99.99,,,0.00,Acu-Link.com,2013-06-28 04:48:00,
2013-06-28 01:03:00,56.8,56.2,29.64,ESE,112,7.8,-999.0,98,-99.99,,,0.00,Acu-Link.com,2013-06-28 05:03:00,
2013-06-28 01:18:00,56.8,56.2,29.64,East,90,10.4,-999.0,98,-99.99,,,0.00,Acu-Link.com,2013-06-28 05:18:00,
2013-06-28 01:33:00,56.8,56.0,29.64,ESE,112,11.9,-999.0,97,-99.99,,,0.01,Acu-Link.com,2013-06-28 05:33:00,
2013-06-28 01:48:00,56.8,56.0,29.62,ESE,112,15.0,-999.0,97,-99.99,,,0.01,Acu-Link.com,2013-06-28 05:48:00,
2013-06-28 02:03:00,56.8,56.0,29.62,East,90,14.5,-999.0,97,-99.99,,,0.01,Acu-Link.com,2013-06-28 06:03:00,
2013-06-28 02:18:00,56.8,56.0,29.63,ENE,67,10.4,-999.0,97,-99.99,,,0.01,Acu-Link.com,2013-06-28 06:18:00,
2013-06-28 02:33:00,56.8,56.0,29.62,ENE,67,7.3,-999.0,97,-99.99,,,0.01,Acu-Link.com,2013-06-28 06:33:00,
2013-06-28 02:48:00,57.0,56.2,29.61,East,90,7.3,-999.0,97,-99.99,,,0.01,Acu-Link.com,2013-06-28 06:48:00,
2013-06-28 03:03:00,57.4,56.6,29.60,NE,45,11.4,-999.0,97,-99.99,,,0.02,Acu-Link.com,2013-06-28 07:03:00,
2013-06-28 03:19:00,57.4,56.6,29.58,NE,45,7.3,-999.0,97,-99.99,,,0.05,Acu-Link.com,2013-06-28 07:19:00,
2013-06-28 03:34:00,57.4,56.6,29.59,ESE,112,10.9,-999.0,97,-99.99,,,0.05,Acu-Link.com,2013-06-28 07:34:00,
2013-06-28 03:49:00,57.4,56.6,29.59,East,90,12.5,-999.0,97,-99.99,,,0.05,Acu-Link.com,2013-06-28 07:49:00,
2013-06-28 04:04:00,57.2,56.4,29.59,ESE,112,13.5,-999.0,97,-99.99,,,0.05,Acu-Link.com,2013-06-28 08:04:00,
2013-06-28 04:19:00,57.2,56.4,29.58,ESE,112,8.3,-999.0,97,-99.99,,,0.05,Acu-Link.com,2013-06-28 08:19:00,
2013-06-28 04:34:00,57.0,56.4,29.56,NE,45,13.5,-999.0,98,-99.99,,,0.05,Acu-Link.com,2013-06-28 08:34:00,
2013-06-28 04:50:00,57.0,56.4,29.57,ESE,112,15.5,-999.0,98,-99.99,,,0.05,Acu-Link.com,2013-06-28 08:50:00,
2013-06-28 05:05:00,56.8,56.2,29.56,ENE,67,11.4,-999.0,98,-99.99,,,0.05,Acu-Link.com,2013-06-28 09:05:00,
2013-06-28 05:20:00,56.8,56.2,29.56,East,90,14.5,-999.0,98,-99.99,,,0.05,Acu-Link.com,2013-06-28 09:20:00,
2013-06-28 05:35:00,56.5,55.9,29.54,ESE,112,15.5,-999.0,98,-99.99,,,0.07,Acu-Link.com,2013-06-28 09:35:00,
2013-06-28 05:50:00,56.5,56.2,29.51,ESE,112,18.1,-999.0,99,-99.99,,,0.10,Acu-Link.com,2013-06-28 09:50:00,
2013-06-28 06:05:00,56.5,56.2,29.50,ESE,112,20.7,-999.0,99,-99.99,,,0.19,Acu-Link.com,2013-06-28 10:05:00,
2013-06-28 06:21:00,56.5,56.2,29.51,East,90,16.6,-999.0,99,-99.99,,,0.20,Acu-Link.com,2013-06-28 10:21:00,
2013-06-28 06:36:00,56.5,56.2,29.52,ESE,112,18.1,-999.0,99,-99.99,,,0.20,Acu-Link.com,2013-06-28 10:36:00,
2013-06-28 06:51:00,56.5,56.2,29.50,ESE,112,24.3,-999.0,99,-99.99,,,0.20,Acu-Link.com,2013-06-28 10:51:00,
2013-06-28 07:07:00,56.3,56.0,29.50,East,90,19.1,-999.0,99,-99.99,,,0.26,Acu-Link.com,2013-06-28 11:07:00,
2013-06-28 07:22:00,56.3,56.0,29.51,ESE,112,20.2,-999.0,99,-99.99,,,0.28,Acu-Link.com,2013-06-28 11:22:00,
2013-06-28 07:37:00,56.1,55.8,29.50,ESE,112,21.7,-999.0,99,-99.99,,,0.28,Acu-Link.com,2013-06-28 11:37:00,
2013-06-28 07:52:00,56.1,55.8,29.50,ESE,112,13.5,-999.0,99,-99.99,,,0.28,Acu-Link.com,2013-06-28 11:52:00,
2013-06-28 08:07:00,56.1,55.8,29.48,East,90,17.6,-999.0,99,-99.99,,,0.28,Acu-Link.com,2013-06-28 12:07:00,
2013-06-28 08:23:00,56.1,55.8,29.48,ESE,112,18.6,-999.0,99,-99.99,,,0.28,Acu-Link.com,2013-06-28 12:23:00,
2013-06-28 08:38:00,56.3,56.0,29.48,ESE,112,16.1,-999.0,99,-99.99,,,0.29,Acu-Link.com,2013-06-28 12:38:00,
2013-06-28 08:53:00,56.3,56.0,29.49,ESE,112,11.4,-999.0,99,-99.99,,,0.30,Acu-Link.com,2013-06-28 12:53:00,
2013-06-28 09:08:00,56.7,56.4,29.46,ESE,112,15.0,-999.0,99,-99.99,,,0.30,Acu-Link.com,2013-06-28 13:08:00,
2013-06-28 09:23:00,56.7,56.4,29.45,ENE,67,13.0,-999.0,99,-99.99,,,0.30,Acu-Link.com,2013-06-28 13:23:00,
2013-06-28 09:39:00,56.8,56.5,29.44,ESE,112,15.5,-999.0,99,-99.99,,,0.34,Acu-Link.com,2013-06-28 13:39:00,
2013-06-28 09:54:00,57.0,56.7,29.45,NE,45,11.9,-999.0,99,-99.99,,,0.34,Acu-Link.com,2013-06-28 13:54:00,
2013-06-28 10:09:00,57.2,56.9,29.45,East,90,11.4,-999.0,99,-99.99,,,0.36,Acu-Link.com,2013-06-28 14:09:00,
2013-06-28 10:24:00,57.4,57.1,29.44,ESE,112,15.5,-999.0,99,-99.99,,,0.38,Acu-Link.com,2013-06-28 14:24:00,
2013-06-28 10:39:00,57.7,57.4,29.42,ESE,112,11.4,-999.0,99,-99.99,,,0.38,Acu-Link.com,2013-06-28 14:39:00,
2013-06-28 10:54:00,58.3,58.0,29.41,ESE,112,14.5,-999.0,99,-99.99,,,0.38,Acu-Link.com,2013-06-28 14:54:00,
2013-06-28 11:09:00,58.5,58.2,29.42,East,90,9.9,-999.0,99,-99.99,,,0.39,Acu-Link.com,2013-06-28 15:09:00,
2013-06-28 11:24:00,58.8,58.5,29.40,ESE,112,13.0,-999.0,99,-99.99,,,0.39,Acu-Link.com,2013-06-28 15:24:00,
2013-06-28 11:39:00,59.4,59.1,29.42,East,90,10.4,-999.0,99,-99.99,,,0.39,Acu-Link.com,2013-06-28 15:39:00,
2013-06-28 11:54:00,59.5,59.2,29.42,East,90,5.8,-999.0,99,-99.99,,,0.39,Acu-Link.com,2013-06-28 15:54:00,
2013-06-28 12:09:00,60.3,60.0,29.41,ESE,112,5.8,-999.0,99,-99.99,,,0.39,Acu-Link.com,2013-06-28 16:09:00,
2013-06-28 12:25:00,61.3,61.0,29.40,SSE,157,5.3,-999.0,99,-99.99,,,0.39,Acu-Link.com,2013-06-28 16:25:00,
2013-06-28 12:40:00,62.2,61.9,29.40,SSE,157,4.2,-999.0,99,-99.99,,,0.39,Acu-Link.com,2013-06-28 16:40:00,
2013-06-28 12:55:00,62.1,61.8,29.39,SE,135,3.2,-999.0,99,-99.99,,,0.39,Acu-Link.com,2013-06-28 16:55:00,
2013-06-28 13:11:00,62.1,61.8,29.39,SSE,157,2.7,-999.0,99,-99.99,,,0.39,Acu-Link.com,2013-06-28 17:11:00,
2013-06-28 13:26:00,61.7,61.4,29.38,ESE,112,3.7,-999.0,99,-99.99,,,0.39,Acu-Link.com,2013-06-28 17:26:00,
2013-06-28 13:41:00,62.2,61.9,29.38,SE,135,3.2,-999.0,99,-99.99,,,0.39,Acu-Link.com,2013-06-28 17:41:00,
2013-06-28 13:56:00,62.8,62.5,29.38,South,180,5.3,-999.0,99,-99.99,,,0.39,Acu-Link.com,2013-06-28 17:56:00,
2013-06-28 14:12:00,61.9,61.6,29.39,SSE,157,4.2,-999.0,99,-99.99,,,0.39,Acu-Link.com,2013-06-28 18:12:00,
2013-06-28 14:27:00,61.2,60.9,29.37,South,180,6.3,-999.0,99,-99.99,,,0.39,Acu-Link.com,2013-06-28 18:27:00,
2013-06-28 14:42:00,61.2,60.9,29.39,South,180,4.7,-999.0,99,-99.99,,,0.39,Acu-Link.com,2013-06-28 18:42:00,
2013-06-28 14:57:00,61.2,60.9,29.37,South,180,4.7,-999.0,99,-99.99,,,0.39,Acu-Link.com,2013-06-28 18:57:00,
2013-06-28 15:12:00,61.3,61.0,29.37,SSW,202,5.3,-999.0,99,-99.99,,,0.39,Acu-Link.com,2013-06-28 19:12:00,
2013-06-28 15:27:00,61.7,61.4,29.37,SW,225,3.7,-999.0,99,-99.99,,,0.39,Acu-Link.com,2013-06-28 19:27:00,
2013-06-28 15:43:00,61.5,61.2,29.36,SW,225,3.7,-999.0,99,-99.99,,,0.39,Acu-Link.com,2013-06-28 19:43:00,
2013-06-28 15:58:00,61.9,61.6,29.36,SSW,202,5.8,-999.0,99,-99.99,,,0.39,Acu-Link.com,2013-06-28 19:58:00,
2013-06-28 16:13:00,60.6,60.3,29.37,South,180,3.7,-999.0,99,-99.99,,,0.39,Acu-Link.com,2013-06-28 20:13:00,
2013-06-28 16:29:00,60.6,60.3,29.35,SSE,157,3.7,-999.0,99,-99.99,,,0.39,Acu-Link.com,2013-06-28 20:29:00,
2013-06-28 16:44:00,60.8,60.5,29.35,South,180,6.8,-999.0,99,-99.99,,,0.39,Acu-Link.com,2013-06-28 20:44:00,
2013-06-28 16:59:00,62.1,61.8,29.35,SSE,157,4.7,-999.0,99,-99.99,,,0.39,Acu-Link.com,2013-06-28 20:59:00,
2013-06-28 17:14:00,61.9,61.6,29.37,SSE,157,4.7,-999.0,99,-99.99,,,0.39,Acu-Link.com,2013-06-28 21:14:00,
2013-06-28 17:29:00,61.7,61.4,29.36,East,90,1.7,-999.0,99,-99.99,,,0.39,Acu-Link.com,2013-06-28 21:29:00,
2013-06-28 17:44:00,61.5,61.2,29.36,ENE,67,0.0,-999.0,99,-99.99,,,0.39,Acu-Link.com,2013-06-28 21:44:00,
2013-06-28 17:59:00,61.9,61.6,29.36,ESE,112,3.7,-999.0,99,-99.99,,,0.39,Acu-Link.com,2013-06-28 21:59:00,
2013-06-28 18:15:00,61.9,61.6,29.35,South,180,4.2,-999.0,99,-99.99,,,0.39,Acu-Link.com,2013-06-28 22:15:00,
2013-06-28 18:30:00,61.7,61.4,29.36,South,180,4.7,-999.0,99,-99.99,,,0.39,Acu-Link.com,2013-06-28 22:30:00,
2013-06-28 18:45:00,61.7,61.4,29.36,SSE,157,3.2,-999.0,99,-99.99,,,0.39,Acu-Link.com,2013-06-28 22:45:00,
2013-06-28 19:00:00,61.9,61.6,29.36,SSE,157,4.7,-999.0,99,-99.99,,,0.39,Acu-Link.com,2013-06-28 23:00:00,
2013-06-28 19:15:00,61.9,61.6,29.37,SSE,157,3.2,-999.0,99,-99.99,,,0.39,Acu-Link.com,2013-06-28 23:15:00,
2013-06-28 19:30:00,61.9,61.6,29.36,SE,135,4.7,-999.0,99,-99.99,,,0.39,Acu-Link.com,2013-06-28 23:30:00,
2013-06-28 19:46:00,61.5,61.2,29.37,SSE,157,4.7,-999.0,99,-99.99,,,0.39,Acu-Link.com,2013-06-28 23:46:00,
2013-06-28 20:01:00,61.7,61.4,29.34,SSE,157,6.8,-999.0,99,-99.99,,,0.39,Acu-Link.com,2013-06-29 00:01:00,
2013-06-28 20:16:00,61.2,60.9,29.37,South,180,4.7,-999.0,99,-99.99,,,0.39,Acu-Link.com,2013-06-29 00:16:00,
2013-06-28 20:31:00,61.0,60.7,29.37,SSW,202,2.2,-999.0,99,-99.99,,,0.39,Acu-Link.com,2013-06-29 00:31:00,
2013-06-28 20:46:00,61.2,60.9,29.38,SSW,202,0.0,-999.0,99,-99.99,,,0.39,Acu-Link.com,2013-06-29 00:46:00,
2013-06-28 21:02:00,61.0,60.7,29.39,ESE,112,4.2,-999.0,99,-99.99,,,0.39,Acu-Link.com,2013-06-29 01:02:00,
2013-06-28 21:17:00,60.6,60.3,29.39,SE,135,4.7,-999.0,99,-99.99,,,0.39,Acu-Link.com,2013-06-29 01:17:00,
2013-06-28 21:32:00,61.0,60.7,29.38,SSE,157,9.4,-999.0,99,-99.99,,,0.39,Acu-Link.com,2013-06-29 01:32:00,
2013-06-28 21:48:00,61.5,61.2,29.38,South,180,6.8,-999.0,99,-99.99,,,0.39,Acu-Link.com,2013-06-29 01:48:00,
2013-06-28 22:03:00,60.8,60.5,29.40,SSW,202,4.2,-999.0,99,-99.99,,,0.39,Acu-Link.com,2013-06-29 02:03:00,
2013-06-28 22:18:00,61.0,60.7,29.40,SSE,157,7.3,-999.0,99,-99.99,,,0.39,Acu-Link.com,2013-06-29 02:18:00,
2013-06-28 22:33:00,61.0,60.7,29.39,South,180,4.2,-999.0,99,-99.99,,,0.39,Acu-Link.com,2013-06-29 02:33:00,
2013-06-28 22:49:00,60.6,60.3,29.39,SSW,202,5.3,-999.0,99,-99.99,,,0.39,Acu-Link.com,2013-06-29 02:49:00,
2013-06-28 23:04:00,60.1,59.8,29.39,South,180,8.9,-999.0,99,-99.99,,,0.39,Acu-Link.com,2013-06-29 03:04:00,
2013-06-28 23:19:00,60.4,60.1,29.38,South,180,5.8,-999.0,99,-99.99,,,0.39,Acu-Link.com,2013-06-29 03:19:00,
2013-06-28 23:34:00,59.9,59.6,29.40,SW,225,5.3,-999.0,99,-99.99,,,0.39,Acu-Link.com,2013-06-29 03:34:00,
2013-06-28 23:49:00,60.1,59.8,29.39,SSW,202,4.2,-999.0,99,-99.99,,,0.39,Acu-Link.com,2013-06-29 03:49:00,